createdAt,value
2019-01-11T00:00:36.410Z,36.53
2019-01-11T00:03:02.575Z,37.23
2019-01-11T00:05:28.740Z,35.95
2019-01-11T00:07:54.933Z,38.38
2019-01-11T00:10:21.535Z,35.80
2019-01-11T00:12:47.700Z,35.25
2019-01-11T00:15:13.995Z,38.53
2019-01-11T00:17:40.151Z,37.05
2019-01-11T00:20:08.603Z,37.78
2019-01-11T00:22:34.655Z,35.90
2019-01-11T00:25:00.735Z,37.85
2019-01-11T00:27:26.912Z,34.48
2019-01-11T00:29:52.962Z,34.18
2019-01-11T00:32:19.004Z,32.73
2019-01-11T00:34:45.079Z,33.90
2019-01-11T00:37:11.409Z,33.23
2019-01-11T00:39:37.466Z,34.00
2019-01-11T00:42:03.546Z,35.13
2019-01-11T00:44:29.824Z,34.05
2019-01-11T00:46:56.177Z,35.83
2019-01-11T00:49:22.237Z,33.08
2019-01-11T00:51:49.629Z,33.13
2019-01-11T00:54:15.735Z,34.00
2019-01-11T00:56:41.781Z,35.40
2019-01-11T00:59:08.110Z,33.15
2019-01-11T01:01:34.171Z,35.83
2019-01-11T01:04:00.900Z,31.60
2019-01-11T01:06:26.950Z,33.53
2019-01-11T01:08:53.053Z,33.90
2019-01-11T01:11:19.298Z,31.47
2019-01-11T01:13:46.037Z,32.57
2019-01-11T01:16:12.444Z,32.75
2019-01-11T01:18:38.653Z,33.88
2019-01-11T01:21:04.730Z,32.60
2019-01-11T01:23:33.215Z,31.20
2019-01-11T01:25:59.733Z,30.75
2019-01-11T01:28:26.385Z,32.65
2019-01-11T01:30:52.605Z,33.28
2019-01-11T01:33:18.697Z,32.10
2019-01-11T01:35:45.115Z,31.07
2019-01-11T01:38:11.286Z,28.23
2019-01-11T01:40:37.575Z,27.30
2019-01-11T01:43:04.294Z,27.33
2019-01-11T01:45:30.554Z,26.57
2019-01-11T01:47:56.631Z,27.20
2019-01-11T01:50:22.791Z,29.40
2019-01-11T01:52:48.850Z,27.42
2019-01-11T01:55:15.139Z,26.77
2019-01-11T01:57:41.982Z,28.17
2019-01-11T02:00:11.693Z,27.35
2019-01-11T02:02:38.184Z,27.58
2019-01-11T02:05:06.948Z,28.05
2019-01-11T02:07:33.484Z,27.48
2019-01-11T02:09:59.512Z,26.23
2019-01-11T02:12:26.473Z,26.05
2019-01-11T02:14:52.556Z,25.97
2019-01-11T02:17:18.906Z,23.80
2019-01-11T02:19:45.073Z,24.80
2019-01-11T02:22:11.105Z,23.65
2019-01-11T02:24:37.158Z,25.32
2019-01-11T02:27:03.384Z,26.10
2019-01-11T02:29:29.528Z,24.40
2019-01-11T02:31:55.822Z,22.77
2019-01-11T02:34:21.878Z,23.32
2019-01-11T02:36:47.924Z,22.65
2019-01-11T02:39:14.058Z,23.73
2019-01-11T02:41:40.211Z,22.57
2019-01-11T02:44:06.257Z,21.23
2019-01-11T02:46:32.389Z,22.07
2019-01-11T02:48:58.449Z,23.00
2019-01-11T02:51:24.496Z,23.17
2019-01-11T02:53:50.535Z,22.90
2019-01-11T02:56:16.599Z,24.12
2019-01-11T02:58:42.633Z,26.00
2019-01-11T03:01:08.684Z,27.52
2019-01-11T03:03:34.752Z,26.17
2019-01-11T03:06:00.785Z,26.55
2019-01-11T03:08:26.828Z,26.23
2019-01-11T03:10:52.883Z,26.73
2019-01-11T03:13:19.209Z,28.92
2019-01-11T03:15:45.248Z,27.07
2019-01-11T03:18:11.306Z,27.32
2019-01-11T03:20:37.444Z,29.63
2019-01-11T03:23:03.500Z,30.15
2019-01-11T03:25:29.556Z,30.45
2019-01-11T03:27:55.637Z,29.25
2019-01-11T03:30:21.700Z,31.85
2019-01-11T03:32:47.813Z,33.60
2019-01-11T03:35:14.464Z,33.17
2019-01-11T03:37:40.609Z,32.80
2019-01-11T03:40:09.961Z,39.90
2019-01-11T03:42:36.120Z,41.17
2019-01-11T03:45:05.047Z,42.43
2019-01-11T03:47:31.090Z,36.83
2019-01-11T03:49:57.198Z,42.33
2019-01-11T03:52:23.236Z,41.60
2019-01-11T03:54:49.273Z,44.65
2019-01-11T03:57:15.391Z,44.27
2019-01-11T03:59:41.408Z,45.20
2019-01-11T04:02:07.432Z,51.50
2019-01-11T04:04:33.512Z,47.78
2019-01-11T04:06:59.573Z,43.67
2019-01-11T04:09:25.616Z,54.85
2019-01-11T04:11:51.696Z,49.33
2019-01-11T04:14:17.742Z,48.00
2019-01-11T04:16:43.794Z,55.70
2019-01-11T04:19:11.259Z,53.20
2019-01-11T04:21:37.278Z,54.27
2019-01-11T04:24:03.731Z,56.35
2019-01-11T04:26:29.756Z,57.05
2019-01-11T04:28:55.793Z,52.60
2019-01-11T04:31:21.853Z,64.22
2019-01-11T04:33:48.523Z,63.42
2019-01-11T04:36:14.597Z,70.30
2019-01-11T04:38:41.077Z,64.90
2019-01-11T04:41:07.102Z,60.80
2019-01-11T04:43:33.142Z,74.05
2019-01-11T04:45:59.309Z,93.85
2019-01-11T04:48:25.355Z,66.42
2019-01-11T04:50:51.422Z,65.92
2019-01-11T04:53:17.522Z,103.10
2019-01-11T04:55:43.744Z,86.67
2019-01-11T04:58:09.775Z,70.10
2019-01-11T05:00:35.797Z,82.40
2019-01-11T05:03:01.866Z,75.28
2019-01-11T05:05:27.900Z,79.32
2019-01-11T05:07:53.965Z,84.70
2019-01-11T05:10:20.149Z,94.13
2019-01-11T05:12:46.502Z,83.35
2019-01-11T05:15:13.071Z,73.00
2019-01-11T05:17:39.389Z,75.83
2019-01-11T05:20:08.620Z,98.03
2019-01-11T05:22:34.652Z,80.87
2019-01-11T05:25:00.715Z,89.58
2019-01-11T05:27:26.752Z,108.40
2019-01-11T05:29:52.845Z,81.20
2019-01-11T05:32:18.879Z,93.42
2019-01-11T05:34:44.920Z,114.10
2019-01-11T05:37:11.142Z,113.37
2019-01-11T05:39:37.178Z,93.33
2019-01-11T05:42:03.437Z,96.82
2019-01-11T05:44:29.484Z,116.45
2019-01-11T05:46:55.588Z,89.03
2019-01-11T05:49:21.623Z,91.65
2019-01-11T05:51:48.074Z,96.78
2019-01-11T05:54:14.156Z,84.70
2019-01-11T05:56:40.232Z,84.73
2019-01-11T05:59:06.485Z,87.95
2019-01-11T06:01:32.539Z,82.35
2019-01-11T06:03:59.908Z,92.88
2019-01-11T06:06:28.024Z,124.72
2019-01-11T06:08:54.062Z,93.60
2019-01-11T06:11:20.114Z,110.78
2019-01-11T06:13:47.213Z,93.50
2019-01-11T06:16:13.399Z,218.00
2019-01-11T06:18:39.955Z,118.60
2019-01-11T06:21:06.102Z,96.13
2019-01-11T06:23:32.155Z,137.37
2019-01-11T06:25:58.520Z,119.70
2019-01-11T06:28:24.614Z,108.22
2019-01-11T06:30:50.994Z,95.85
2019-01-11T06:33:17.461Z,102.05
2019-01-11T06:35:43.526Z,121.70
2019-01-11T06:38:09.859Z,113.88
2019-01-11T06:40:35.951Z,104.05
2019-01-11T06:43:03.582Z,109.48
2019-01-11T06:45:29.885Z,120.23
2019-01-11T06:47:55.982Z,104.20
2019-01-11T06:50:22.065Z,122.67
2019-01-11T06:52:48.092Z,119.53
2019-01-11T06:55:14.156Z,116.30
2019-01-11T06:57:40.194Z,135.35
2019-01-11T07:00:09.744Z,94.52
2019-01-11T07:02:36.070Z,95.92
2019-01-11T07:05:02.617Z,90.65
2019-01-11T07:07:28.660Z,94.42
2019-01-11T07:09:55.620Z,90.93
2019-01-11T07:12:22.480Z,82.90
2019-01-11T07:14:48.642Z,92.60
2019-01-11T07:17:14.673Z,98.60
2019-01-11T07:19:40.984Z,91.87
2019-01-11T07:22:07.021Z,81.02
2019-01-11T07:24:33.050Z,91.10
2019-01-11T07:26:59.112Z,83.62
2019-01-11T07:29:39.481Z,91.80
2019-01-11T07:32:05.742Z,91.55
2019-01-11T07:34:31.779Z,82.70
2019-01-11T07:36:57.818Z,82.50
2019-01-11T07:39:27.756Z,75.50
2019-01-11T07:41:53.820Z,85.38
2019-01-11T07:44:19.950Z,72.55
2019-01-11T07:46:45.989Z,87.20
2019-01-11T07:49:12.078Z,98.35
2019-01-11T07:51:38.213Z,92.37
2019-01-11T07:54:05.155Z,91.40
2019-01-11T07:56:31.445Z,101.35
2019-01-11T07:58:57.518Z,85.70
2019-01-11T08:01:23.789Z,97.37
2019-01-11T08:03:49.853Z,81.57
2019-01-11T08:06:17.800Z,78.37
2019-01-11T08:08:43.950Z,78.27
2019-01-11T08:11:10.483Z,83.25
2019-01-11T08:13:36.728Z,74.42
2019-01-11T08:16:02.998Z,82.20
2019-01-11T08:18:29.070Z,76.75
2019-01-11T08:20:56.355Z,78.60
2019-01-11T08:23:23.073Z,75.28
2019-01-11T08:25:49.362Z,61.98
2019-01-11T08:28:15.822Z,68.42
2019-01-11T08:30:42.073Z,63.68
2019-01-11T08:33:08.109Z,59.30
2019-01-11T08:35:34.133Z,60.00
2019-01-11T08:38:00.205Z,58.78
2019-01-11T08:40:26.261Z,56.23
2019-01-11T08:42:52.284Z,56.43
2019-01-11T08:45:18.452Z,44.30
2019-01-11T08:47:44.477Z,52.23
2019-01-11T08:50:14.630Z,42.93
2019-01-11T08:52:40.712Z,39.15
2019-01-11T08:55:07.145Z,49.75
2019-01-11T08:57:33.299Z,43.73
2019-01-11T08:59:59.368Z,36.63
2019-01-11T09:02:25.445Z,37.53
2019-01-11T09:04:51.507Z,35.55
2019-01-11T09:07:17.544Z,29.87
2019-01-11T09:09:43.583Z,34.07
2019-01-11T09:12:09.713Z,29.65
2019-01-11T09:14:46.626Z,25.20
2019-01-11T09:17:12.662Z,17.80
2019-01-11T09:19:38.716Z,23.38
2019-01-11T09:22:04.767Z,17.93
2019-01-11T09:24:31.152Z,19.90
2019-01-11T09:26:57.432Z,26.23
2019-01-11T09:29:23.463Z,23.80
2019-01-11T09:31:49.490Z,22.93
2019-01-11T09:34:15.560Z,21.20
2019-01-11T09:36:43.120Z,17.07
2019-01-11T09:39:09.164Z,18.50
2019-01-11T09:41:35.221Z,14.15
2019-01-11T09:44:01.256Z,12.07
2019-01-11T09:46:27.294Z,14.50
2019-01-11T09:48:53.359Z,16.93
2019-01-11T09:51:19.485Z,13.08
2019-01-11T09:53:45.538Z,15.80
2019-01-11T09:56:11.585Z,13.05
2019-01-11T09:58:37.618Z,12.78
2019-01-11T10:01:03.699Z,13.43
2019-01-11T10:03:29.742Z,9.40
2019-01-11T10:05:55.871Z,15.03
2019-01-11T10:08:22.096Z,16.55
2019-01-11T10:10:48.310Z,12.70
2019-01-11T10:13:14.410Z,11.90
2019-01-11T10:15:40.450Z,14.38
2019-01-11T10:18:06.490Z,15.83
2019-01-11T10:20:32.518Z,13.97
2019-01-11T10:22:58.906Z,13.38
2019-01-11T10:25:24.940Z,14.07
2019-01-11T10:27:51.033Z,15.35
2019-01-11T10:30:18.780Z,15.60
2019-01-11T10:32:44.847Z,13.68
2019-01-11T10:35:11.031Z,8.93
2019-01-11T10:37:37.071Z,10.95
2019-01-11T10:40:06.209Z,16.50
2019-01-11T10:42:32.273Z,14.38
2019-01-11T10:44:58.533Z,13.75
2019-01-11T10:47:24.609Z,12.15
2019-01-11T10:49:50.640Z,12.15
2019-01-11T10:52:16.692Z,11.40
2019-01-11T10:54:42.853Z,6.67
2019-01-11T10:57:09.387Z,9.68
2019-01-11T10:59:35.402Z,10.58
2019-01-11T11:02:01.462Z,9.80
2019-01-11T11:04:27.597Z,8.63
2019-01-11T11:06:53.628Z,7.37
2019-01-11T11:09:19.676Z,11.13
2019-01-11T11:11:46.062Z,7.50
2019-01-11T11:14:12.101Z,8.00
2019-01-11T11:16:38.133Z,7.90
2019-01-11T11:19:04.683Z,9.78
2019-01-11T11:21:34.662Z,5.90
2019-01-11T11:23:58.817Z,7.95
2019-01-11T11:26:24.898Z,7.30
2019-01-11T11:28:50.969Z,10.85
2019-01-11T11:31:16.994Z,10.48
2019-01-11T11:33:43.246Z,9.20
2019-01-11T11:36:09.295Z,13.15
2019-01-11T11:38:35.321Z,21.27
2019-01-11T11:41:01.388Z,17.07
2019-01-11T11:43:27.486Z,12.35
2019-01-11T11:45:53.548Z,10.38
2019-01-11T11:48:19.578Z,7.95
2019-01-11T11:50:45.646Z,6.33
2019-01-11T11:53:11.782Z,5.33
2019-01-11T11:55:37.928Z,4.40
2019-01-11T11:58:03.958Z,4.40
2019-01-11T12:00:30.010Z,4.60
2019-01-11T12:02:56.076Z,5.07
2019-01-11T12:05:22.098Z,5.75
2019-01-11T12:07:48.150Z,5.12
2019-01-11T12:10:14.768Z,4.70
2019-01-11T12:12:40.857Z,6.28
2019-01-11T12:15:08.786Z,6.95
2019-01-11T12:17:36.077Z,7.30
2019-01-11T12:20:05.797Z,8.75
2019-01-11T12:22:31.836Z,9.95
2019-01-11T12:24:58.291Z,8.68
2019-01-11T12:27:24.440Z,11.75
2019-01-11T12:29:50.574Z,7.87
2019-01-11T12:32:19.643Z,12.37
2019-01-11T12:34:44.570Z,8.85
2019-01-11T12:37:10.634Z,8.23
2019-01-11T12:39:36.660Z,10.55
2019-01-11T12:42:03.161Z,8.93
2019-01-11T12:44:29.213Z,11.63
2019-01-11T12:46:55.249Z,10.00
2019-01-11T12:49:21.318Z,10.75
2019-01-11T12:51:53.861Z,10.45
2019-01-11T12:54:15.848Z,10.53
2019-01-11T12:56:41.909Z,13.90
2019-01-11T12:59:07.978Z,13.22
2019-01-11T13:01:34.012Z,9.87
2019-01-11T13:04:00.339Z,9.60
2019-01-11T13:06:26.371Z,12.75
2019-01-11T13:08:52.397Z,13.45
2019-01-11T13:11:18.557Z,14.55
2019-01-11T13:13:44.595Z,10.93
2019-01-11T13:16:10.629Z,11.87
2019-01-11T13:18:36.715Z,11.40
2019-01-11T13:21:03.354Z,13.85
2019-01-11T13:23:29.462Z,13.85
2019-01-11T13:25:55.499Z,10.43
2019-01-11T13:28:21.794Z,13.20
2019-01-11T13:30:47.901Z,17.65
2019-01-11T13:33:13.995Z,16.90
2019-01-11T13:35:40.030Z,14.10
2019-01-11T13:38:06.468Z,13.83
2019-01-11T13:40:32.534Z,16.07
2019-01-11T13:42:58.553Z,15.78
2019-01-11T13:45:24.595Z,20.30
2019-01-11T13:47:50.737Z,14.23
2019-01-11T13:50:30.880Z,19.62
2019-01-11T13:52:56.936Z,20.80
2019-01-11T13:55:23.005Z,21.37
2019-01-11T13:57:49.111Z,21.20
2019-01-11T14:00:15.309Z,18.67
2019-01-11T14:02:41.462Z,21.05
2019-01-11T14:05:07.907Z,22.67
2019-01-11T14:07:33.961Z,23.30
2019-01-11T14:09:59.986Z,23.32
2019-01-11T14:12:26.012Z,25.32
2019-01-11T14:14:52.128Z,24.40
2019-01-11T14:17:18.427Z,26.07
2019-01-11T14:19:44.465Z,23.33
2019-01-11T14:22:13.804Z,28.62
2019-01-11T14:24:38.500Z,22.48
2019-01-11T14:27:04.531Z,24.55
2019-01-11T14:29:30.577Z,35.52
2019-01-11T14:31:56.621Z,27.95
2019-01-11T14:34:22.648Z,28.83
2019-01-11T14:36:48.780Z,28.80
2019-01-11T14:39:14.844Z,28.50
2019-01-11T14:41:41.213Z,28.70
2019-01-11T14:44:07.352Z,31.65
2019-01-11T14:46:33.388Z,26.85
2019-01-11T14:48:59.413Z,34.40
2019-01-11T14:51:25.721Z,33.75
2019-01-11T14:53:51.737Z,30.43
2019-01-11T14:56:17.763Z,40.58
2019-01-11T14:58:43.842Z,28.62
2019-01-11T15:01:09.943Z,39.53
2019-01-11T15:03:35.968Z,34.25
2019-01-11T15:06:02.171Z,30.92
2019-01-11T15:08:28.218Z,51.08
2019-01-11T15:10:54.246Z,43.08
2019-01-11T15:13:20.473Z,38.50
2019-01-11T15:15:46.510Z,42.75
2019-01-11T15:18:12.539Z,39.55
2019-01-11T15:20:38.625Z,46.53
2019-01-11T15:23:04.640Z,40.78
2019-01-11T15:25:30.676Z,43.30
2019-01-11T15:27:56.810Z,33.30
2019-01-11T15:30:22.933Z,46.80
2019-01-11T15:32:49.067Z,39.63
2019-01-11T15:35:15.203Z,44.63
2019-01-11T15:37:41.329Z,44.73
2019-01-11T15:40:14.433Z,42.27
2019-01-11T15:42:40.513Z,56.73
2019-01-11T15:45:06.645Z,47.30
2019-01-11T15:47:32.809Z,44.25
2019-01-11T15:49:58.869Z,45.50
2019-01-11T15:52:24.897Z,48.78
2019-01-11T15:54:50.960Z,43.20
2019-01-11T15:57:22.845Z,45.28
2019-01-11T16:00:01.477Z,52.45
2019-01-11T16:02:27.616Z,60.28
2019-01-11T16:04:58.494Z,52.20
2019-01-11T16:07:24.657Z,58.77
2019-01-11T16:09:56.491Z,55.70
2019-01-11T16:12:25.395Z,52.13
2019-01-11T16:15:18.088Z,45.35
2019-01-11T16:17:45.056Z,55.43
2019-01-11T16:20:11.496Z,61.08
2019-01-11T16:22:39.716Z,52.50
2019-01-11T16:25:08.471Z,51.13
2019-01-11T16:27:34.882Z,59.05
2019-01-11T16:30:00.979Z,53.92
2019-01-11T16:32:27.061Z,51.42
2019-01-11T16:34:53.130Z,46.80
2019-01-11T16:37:20.576Z,51.75
2019-01-11T16:39:46.698Z,63.63
2019-01-11T16:42:13.028Z,54.20
2019-01-11T16:44:39.240Z,56.63
2019-01-11T16:47:05.359Z,53.13
2019-01-11T16:49:31.828Z,56.85
2019-01-11T16:51:57.933Z,57.20
2019-01-11T16:54:24.056Z,56.35
2019-01-11T16:56:51.269Z,59.50
2019-01-11T16:59:17.864Z,51.48
2019-01-11T17:01:43.909Z,60.43
2019-01-11T17:04:09.982Z,58.15
2019-01-11T17:06:36.564Z,52.40
2019-01-11T17:09:05.654Z,65.35
2019-01-11T17:11:31.749Z,49.73
2019-01-11T17:13:58.087Z,56.55
2019-01-11T17:16:24.218Z,54.63
2019-01-11T17:18:50.244Z,60.65
2019-01-11T17:21:16.581Z,51.83
2019-01-11T17:23:42.623Z,61.33
2019-01-11T17:26:08.657Z,59.50
2019-01-11T17:28:35.040Z,66.25
2019-01-11T17:31:01.088Z,61.30
2019-01-11T17:33:27.157Z,68.35
2019-01-11T17:35:53.181Z,55.70
2019-01-11T17:38:19.250Z,65.00
2019-01-11T17:40:45.279Z,50.92
2019-01-11T17:43:11.599Z,57.30
2019-01-11T17:45:37.654Z,61.60
2019-01-11T17:48:04.007Z,66.45
2019-01-11T17:50:30.041Z,61.00
2019-01-11T17:52:59.771Z,64.70
2019-01-11T17:55:24.370Z,65.42
2019-01-11T17:57:50.559Z,66.33
2019-01-11T18:00:16.614Z,65.67
2019-01-11T18:02:42.839Z,59.20
2019-01-11T18:05:11.288Z,56.60
2019-01-11T18:07:37.369Z,61.80
2019-01-11T18:10:06.125Z,55.52
2019-01-11T18:12:32.168Z,62.30
2019-01-11T18:14:58.336Z,62.05
2019-01-11T18:17:24.451Z,62.00
2019-01-11T18:19:50.528Z,68.17
2019-01-11T18:22:16.893Z,71.50
2019-01-11T18:24:42.978Z,69.97
2019-01-11T18:27:09.007Z,64.27
2019-01-11T18:29:35.032Z,58.63
2019-01-11T18:32:01.100Z,73.15
2019-01-11T18:34:27.141Z,67.53
2019-01-11T18:36:53.204Z,58.37
2019-01-11T18:39:19.232Z,69.47
2019-01-11T18:41:45.283Z,69.50
2019-01-11T18:44:11.317Z,68.30
2019-01-11T18:46:37.479Z,67.40
2019-01-11T18:49:04.384Z,67.10
2019-01-11T18:51:30.584Z,69.25
2019-01-11T18:53:56.605Z,65.20
2019-01-11T18:56:22.669Z,67.32
2019-01-11T18:58:48.915Z,72.72
2019-01-11T19:01:14.933Z,64.10
2019-01-11T19:03:40.994Z,77.80
2019-01-11T19:06:07.066Z,67.47
2019-01-11T19:08:33.100Z,68.50
2019-01-11T19:10:59.142Z,68.33
2019-01-11T19:13:25.201Z,62.10
2019-01-11T19:15:51.254Z,72.85
2019-01-11T19:18:17.279Z,72.75
2019-01-11T19:20:44.646Z,70.95
2019-01-11T19:23:10.681Z,67.50
2019-01-11T19:25:36.769Z,74.25
2019-01-11T19:28:03.105Z,69.03
2019-01-11T19:30:29.115Z,82.50
2019-01-11T19:32:55.169Z,73.30
2019-01-11T19:35:21.422Z,75.87
2019-01-11T19:37:47.440Z,85.77
2019-01-11T19:40:14.395Z,71.57
2019-01-11T19:42:40.617Z,65.35
2019-01-11T19:45:09.473Z,71.30
2019-01-11T19:47:54.642Z,78.30
2019-01-11T19:50:21.678Z,67.85
2019-01-11T19:52:51.349Z,68.50
2019-01-11T19:57:53.696Z,79.30
2019-01-11T20:00:28.244Z,71.90
2019-01-11T20:02:57.253Z,67.65
2019-01-11T20:05:32.639Z,81.50
2019-01-11T20:07:58.823Z,78.17
2019-01-11T20:10:28.081Z,71.95
2019-01-11T20:12:54.611Z,78.07
2019-01-11T20:15:20.992Z,68.95
2019-01-11T20:17:47.062Z,66.20
2019-01-11T20:20:14.048Z,60.10
2019-01-11T20:22:40.177Z,70.47
2019-01-11T20:25:10.134Z,68.47
2019-01-11T20:27:36.656Z,81.72
2019-01-11T20:30:07.126Z,67.67
2019-01-11T20:32:33.260Z,62.77
2019-01-11T20:34:59.366Z,67.47
2019-01-11T20:37:28.370Z,65.83
2019-01-11T20:39:54.994Z,70.13
2019-01-11T20:42:21.073Z,65.97
2019-01-11T20:44:47.113Z,68.40
2019-01-11T20:47:13.555Z,64.95
2019-01-11T20:49:41.639Z,70.17
2019-01-11T20:52:08.074Z,65.60
2019-01-11T20:54:34.299Z,73.40
2019-01-11T20:57:00.510Z,68.85
2019-01-11T20:59:26.575Z,80.07
2019-01-11T21:01:54.918Z,60.98
2019-01-11T21:04:25.751Z,74.35
2019-01-11T21:06:52.040Z,63.37
2019-01-11T21:09:18.161Z,60.83
2019-01-11T21:11:44.470Z,80.20
2019-01-11T21:14:10.720Z,57.95
2019-01-11T21:16:36.864Z,58.78
2019-01-11T21:19:02.959Z,62.03
2019-01-11T21:21:29.261Z,72.72
2019-01-11T21:23:55.431Z,65.22
2019-01-11T21:26:21.468Z,68.52
2019-01-11T21:28:47.546Z,61.80
2019-01-11T21:31:13.687Z,73.42
2019-01-11T21:33:39.770Z,72.53
2019-01-11T21:36:05.817Z,62.13
2019-01-11T21:38:31.960Z,66.22
2019-01-11T21:40:58.057Z,63.17
2019-01-11T21:43:24.246Z,61.58
2019-01-11T21:45:50.327Z,68.73
2019-01-11T21:48:16.766Z,56.28
2019-01-11T21:50:42.808Z,63.13
2019-01-11T21:53:09.009Z,59.10
2019-01-11T21:55:35.081Z,65.70
2019-01-11T21:58:01.259Z,57.20
2019-01-11T22:00:35.783Z,63.20
2019-01-11T22:03:02.725Z,66.00
2019-01-11T22:05:28.962Z,52.60
2019-01-11T22:07:55.182Z,62.98
2019-01-11T22:10:21.409Z,58.73
2019-01-11T22:12:47.743Z,64.92
2019-01-11T22:15:16.528Z,58.65
2019-01-11T22:17:42.729Z,63.20
2019-01-11T22:20:12.708Z,61.55
2019-01-11T22:22:38.803Z,66.97
2019-01-11T22:25:07.073Z,57.60
2019-01-11T22:27:33.301Z,57.90
2019-01-11T22:29:59.417Z,59.27
2019-01-11T22:32:25.806Z,50.98
2019-01-11T22:34:52.060Z,66.60
2019-01-11T22:37:18.194Z,72.80
2019-01-11T22:39:44.237Z,61.42
2019-01-11T22:42:10.352Z,61.50
2019-01-11T22:44:36.483Z,55.55
2019-01-11T22:47:03.050Z,60.40
2019-01-11T22:49:29.131Z,56.73
2019-01-11T22:51:55.162Z,61.68
2019-01-11T22:54:21.208Z,52.17
2019-01-11T22:56:47.503Z,60.40
2019-01-11T22:59:13.746Z,53.27
2019-01-11T23:01:52.952Z,55.70
2019-01-11T23:04:19.005Z,61.40
2019-01-11T23:07:00.777Z,57.80
2019-01-11T23:09:27.552Z,51.33
2019-01-11T23:12:00.425Z,58.80
2019-01-11T23:14:26.505Z,55.85
2019-01-11T23:16:55.455Z,53.63
2019-01-11T23:19:21.502Z,53.45
2019-01-11T23:21:47.765Z,66.92
2019-01-11T23:24:17.536Z,51.85
2019-01-11T23:26:41.844Z,56.98
2019-01-11T23:29:07.937Z,63.90
2019-01-11T23:31:35.029Z,53.38
2019-01-11T23:34:01.154Z,65.17
2019-01-11T23:36:27.240Z,51.05
2019-01-11T23:38:53.345Z,47.67
2019-01-11T23:41:23.232Z,69.33
2019-01-11T23:43:49.357Z,55.92
2019-01-11T23:46:15.418Z,62.20
2019-01-11T23:48:41.454Z,70.37
2019-01-11T23:51:07.655Z,61.60
2019-01-11T23:53:33.714Z,70.80
2019-01-11T23:55:59.758Z,56.97
2019-01-11T23:58:26.647Z,58.70
